Nearby METAR Reports

 

KPTW - Pottstown, Pennsylvania, USA
Distance from station: NE 6mi, 10km
Updated: 09/19/2017 8:54am
Overcast
Overcast
 Wind from N
Wind: N 9 mph , 15 km/h
Temperature: 68°F , 20°C
Dew Point: 66°F , 19°C
Humidity: 94%
Barometer: 30.03 inHg , 1016.9 hPa
Clouds: Overcast
Visibility: 8 miles , 13 km
Cloud details: Overcast 1000 ft
2017/09/19 12:54 KPTW 191254Z AUTO 01008KT 8SM OVC010 20/19 A3003 RMK AO2 SLP165 T02000194
KMQS - Coatesville, Pennsylvania, USA
Distance from station: SW 18mi, 29km
Updated: 09/19/2017 9:15am
Overcast
Overcast
 Wind from NNE
Wind: NNE 8 mph , 13 km/h, Gust: 15 mph , 24 km/h
Temperature: 68°F , 20°C
Dew Point: 66°F , 19°C
Humidity: 94%
Barometer: 30.03 inHg , 1016.9 hPa
Clouds: Overcast
Visibility: 9 miles , 14 km
Cloud details: Overcast 500 ft
2017/09/19 13:15 KMQS 191315Z AUTO 02007G13KT 9SM OVC005 20/19 A3003 RMK AO2
 
KLOM - Philly Wings F, Pennsylvania, USA
Distance from station: E 19mi, 31km
Updated: 09/19/2017 9:15am
Overcast
Overcast
 Wind from NNE
Wind: NNE 6 mph , 9 km/h
Temperature: 70°F , 21°C
Dew Point: 66°F , 19°C
Humidity: 88%
Barometer: 30.02 inHg , 1016.6 hPa
Clouds: Overcast
Visibility: 10 miles , 16 km
Cloud details: Overcast 1100 ft
2017/09/19 13:15 KLOM 191315Z AUTO 02005KT 10SM OVC011 21/19 A3002 RMK AO1
KRDG - Reading, Pennsylvania, USA
Distance from station: NW 22mi, 36km
Updated: 09/19/2017 8:54am
Overcast
Overcast
 Wind from NNE
Wind: NNE 8 mph , 13 km/h
Temperature: 70°F , 21°C
Dew Point: 66°F , 19°C
Humidity: 88%
Barometer: 30.03 inHg , 1016.9 hPa
Clouds: Overcast
Visibility: 10 miles , 16 km
Cloud details: Overcast 1100 ft
2017/09/19 12:54 KRDG 191254Z 03007KT 10SM OVC011 21/19 A3003 RMK AO2 SLP171 T02060194
 
KUKT - Quakertown Arp, Pennsylvania, USA
Distance from station: NE 22mi, 36km
Updated: 09/19/2017 9:15am
Overcast
Overcast
 Wind from NE
Wind: NE 9 mph , 15 km/h
Temperature: 68°F , 20°C
Dew Point: 66°F , 19°C
Humidity: 94%
Barometer: 30.04 inHg , 1017.3 hPa
Clouds: Overcast
Visibility: 10 miles , 16 km
Cloud details: Overcast 900 ft
2017/09/19 13:15 KUKT 191315Z AUTO 04008KT 10SM OVC009 20/19 A3004 RMK AO1
KXLL - Allentown Queen, Pennsylvania, USA
Distance from station: NNE 28mi, 46km
Updated: 09/19/2017 9:15am
Overcast
Overcast
 Wind from NNE
Wind: NNE 10 mph , 17 km/h
Temperature: 70°F , 21°C
Dew Point: 66°F , 19°C
Humidity: 88%
Barometer: 30.04 inHg , 1017.3 hPa
Clouds: Overcast
Visibility: 10 miles , 16 km
Cloud details: Overcast 1000 ft
2017/09/19 13:15 KXLL 191315Z AUTO 03009KT 10SM OVC010 21/19 A3004 RMK AO2
 
KDYL - Doylestown, Pennsylvania, USA
Distance from station: ENE 29mi, 47km
Updated: 09/19/2017 8:54am
Overcast
Overcast
 Wind from N
Wind: N 10 mph , 17 km/h
Temperature: 70°F , 21°C
Dew Point: 66°F , 19°C
Humidity: 88%
Barometer: 30.01 inHg , 1016.3 hPa
Clouds: Overcast
Visibility: 10 miles , 16 km
Cloud details: Overcast 1000 ft
2017/09/19 12:54 KDYL 191254Z AUTO 01009KT 10SM OVC010 21/19 A3001 RMK AO2 SLP157 T02110194
KPHL - Philadelphia, Pennsylvania, USA
Distance from station: SE 30mi, 48km
Updated: 09/19/2017 9:19am
Mostly Cloudy
Mostly Cloudy
 Wind from N
Wind: N 16 mph , 26 km/h, Gust: 28 mph , 44 km/h
Temperature: 73°F , 23°C
Dew Point: 66°F , 19°C
Humidity: 78%
Barometer: 29.98 inHg , 1015.2 hPa
Clouds: Mostly Cloudy
Visibility: 10 miles , 16 km
Cloud details: Mostly Cloudy 1500 ft
Mostly Cloudy 2200 ft
2017/09/19 13:19 KPHL 191319Z 01014G24KT 10SM BKN015 BKN022 23/19 A2998 RMK AO2 T02330194
 
KPNE - Philadelphia/Ne, Pennsylvania, USA
Distance from station: E 33mi, 53km
Updated: 09/19/2017 9:16am
Overcast
Overcast
 Wind from NNE
Wind: NNE 15 mph , 24 km/h
Temperature: 73°F , 23°C
Dew Point: 66°F , 19°C
Humidity: 78%
Barometer: 30.00 inHg , 1015.9 hPa
Clouds: Overcast
Visibility: 10 miles , 16 km
Cloud details: Overcast 1500 ft
2017/09/19 13:16 KPNE 191316Z 03013KT 10SM OVC015 23/19 A3000 RMK AO2 T02330194
KABE - Allentown, Pennsylvania, USA
Distance from station: NNE 34mi, 55km
Updated: 09/19/2017 9:21am
Mostly Cloudy
Mostly Cloudy
 Wind from NE
Wind: NE 13 mph , 20 km/h
Temperature: 72°F , 22°C
Dew Point: 64°F , 18°C
Humidity: 78%
Barometer: 30.04 inHg , 1017.3 hPa
Clouds: Mostly Cloudy
Visibility: 10 miles , 16 km
Cloud details: Partly Cloudy 1100 ft
Mostly Cloudy 2700 ft
2017/09/19 13:21 KABE 191321Z 04011KT 10SM SCT011 BKN027 22/18 A3004 RMK AO2 T02220183
 
KILG - Wilmington, Delaware, USA
Distance from station: S 35mi, 56km
Updated: 09/19/2017 9:04am
Overcast
Overcast
 Wind from NNE
Wind: NNE 13 mph , 20 km/h
Temperature: 72°F , 22°C
Dew Point: 68°F , 20°C
Humidity: 88%
Barometer: 29.99 inHg , 1015.6 hPa
Clouds: Overcast
Visibility: 10 miles , 16 km
Cloud details: Overcast 1500 ft
2017/09/19 13:04 KILG 191304Z 02011KT 10SM OVC015 22/20 A2999 RMK AO2 T02220200 $
KLNS - Lancaster, Pennsylvania, USA
Distance from station: W 36mi, 57km
Updated: 09/19/2017 8:53am
Overcast
Overcast
 Wind from ENE
Wind: ENE 12 mph , 19 km/h
Temperature: 70°F , 21°C
Dew Point: 66°F , 19°C
Humidity: 88%
Barometer: 30.03 inHg , 1016.9 hPa
Clouds: Overcast
Visibility: 10 miles , 16 km
Cloud details: Overcast 1000 ft
2017/09/19 12:53 KLNS 191253Z 06010KT 10SM OVC010 21/19 A3003 RMK AO2 SLP165 T02060194
 
KTTN - Trenton, New Jersey, USA
Distance from station: E 44mi, 70km
Updated: 09/19/2017 8:53am
Overcast
Overcast
 Wind from NE
Wind: NE 12 mph , 19 km/h, Gust: 18 mph , 30 km/h
Temperature: 72°F , 22°C
Dew Point: 66°F , 19°C
Humidity: 83%
Barometer: 29.99 inHg , 1015.6 hPa
Clouds: Overcast
Visibility: 10 miles , 16 km
Cloud details: Overcast 1000 ft
2017/09/19 12:53 KTTN 191253Z 04010G16KT 10SM OVC010 22/19 A2999 RMK AO2 CIG 008V013 SLP150 T02170194
KVAY - Mount Holly, New Jersey, USA
Distance from station: ESE 45mi, 73km
Updated: 09/19/2017 8:54am
Overcast
Overcast
 Wind from N
Wind: N 10 mph , 17 km/h
Temperature: 70°F , 21°C
Dew Point: 70°F , 21°C
Humidity: 100%
Barometer: 29.97 inHg , 1014.9 hPa
Clouds: Overcast
Visibility: 10 miles , 16 km
Cloud details: Overcast 1200 ft
2017/09/19 12:54 KVAY 191254Z AUTO 01009KT 10SM OVC012 21/21 A2997 RMK AO2 SLP147 T02110206 $
 
KMUI - Muir Aaf/Indiant, Pennsylvania, USA
Distance from station: WNW 52mi, 84km
Updated: 09/19/2017 8:58am
Overcast
Overcast
 Wind from NNE
Wind: NNE 5 mph , 7 km/h
Temperature: 68°F , 20°C
Dew Point: 68°F , 20°C
Humidity: 100%
Barometer: 30.04 inHg , 1017.3 hPa
Clouds: Overcast
Visibility: 7 miles , 11 km
Cloud details: Few Clouds 700 ft
Overcast 1800 ft
2017/09/19 12:58 KMUI 191258Z 03004KT 7SM FEW007 OVC018 20/20 A3004 RMK AO2A SLP173 T02010196
KAPG - Aberdeen/Phillip, Maryland, USA
Distance from station: SSW 56mi, 91km
Updated: 09/19/2017 8:58am
Overcast
Overcast
 Wind from NE
Wind: NE 8 mph , 13 km/h
Temperature: 72°F , 22°C
Dew Point: 68°F , 20°C
Humidity: 88%
Barometer: 29.98 inHg , 1015.2 hPa
Clouds: Overcast
Visibility: 9 miles , 14 km
Cloud details: Overcast 1500 ft
2017/09/19 12:58 KAPG 191258Z 04007KT 9SM OVC015 22/20 A2998 RMK AO2A SLP155 T02220195 $
 
KWRI - Wrightst/Mcguire, New Jersey, USA
Distance from station: E 56mi, 91km
Updated: 09/19/2017 8:58am
Clear
Clear
 Wind from N
Wind: N 15 mph , 24 km/h
Temperature: 70°F , 21°C
Dew Point: 68°F , 20°C
Humidity: 94%
Barometer: 29.94 inHg , 1013.9 hPa
Clouds: Clear
Visibility: 10 miles , 16 km
2017/09/19 12:58 KWRI 191258Z 01013KT 10SM CLR 21/20 A2994 RMK AO2A RAB21E55 SLP138 P0000 T02110199
KSMQ - Somerville, New Jersey, USA
Distance from station: ENE 59mi, 96km
Updated: 09/06/2017 9:01am
NOT Current
Overcast
Overcast
 Wind from N
Wind: N 9 mph , 15 km/h, Gust: 17 mph , 28 km/h
Temperature: 64°F , 18°C
Dew Point: 61°F , 16°C
Humidity: 88%
Barometer: 29.87 inHg , 1011.5 hPa
Clouds: Overcast
Visibility: 7 miles , 11 km
Cloud details: Partly Cloudy 1200 ft
Overcast 2500 ft
2017/09/06 13:01 KSMQ 061301Z AUTO 35008G15KT 7SM SCT012 OVC025 18/16 A2987 RMK AO2 PRESRR T01780161
 
KMDT - Middletown, Pennsylvania, USA
Distance from station: W 60mi, 97km
Updated: 09/19/2017 8:56am
Overcast
Overcast
 Wind from NNW
Wind: NNW 5 mph , 7 km/h
Temperature: 70°F , 21°C
Dew Point: 66°F , 19°C
Humidity: 88%
Barometer: 30.03 inHg , 1016.9 hPa
Clouds: Overcast
Visibility: 8 miles , 13 km
Cloud details: Overcast 1800 ft
2017/09/19 12:56 KMDT 191256Z 33004KT 8SM OVC018 21/19 A3003 RMK AO2 SLP168 T02060189
KMIV - Millville, New Jersey, USA
Distance from station: SSE 63mi, 101km
Updated: 09/19/2017 9:23am
Light rain, Mist, Overcast
Light rain, Mist, Overcast
 Wind from N
Wind: N 16 mph , 26 km/h
Temperature: 72°F , 22°C
Dew Point: 70°F , 21°C
Humidity: 94%
Barometer: 29.94 inHg , 1013.9 hPa
Summary: Light rain, Mist
Clouds: Overcast
Visibility: 5 miles , 8 km
Cloud details: Partly Cloudy 1700 ft
Mostly Cloudy 4800 ft
Overcast 9000 ft
2017/09/19 13:23 KMIV 191323Z AUTO 01014KT 5SM -RA BR SCT017 BKN048 OVC090 22/21 A2994 RMK AO2 P0002 T02220211 TSNO